Flight Track Log - Related Links

Times and Time Zones

All times are in EDT time to prevent confusion due to time zone crossing. See the KAL1241 flight status page for this flight to view local times or setup timezone preferences in your user account.

Time Position Orientation Groundspeed Altitude Reporting Facility
EDT Latitude Longitude Course Direction KTS MPH feet Rate Location/Type
Tue 02:37:32 AM 36.3741 126.7003 183° South  Level Estimated
Tue 02:38:32 AM 36.2978 126.6946 183° South  Level Estimated
Tue 02:39:32 AM 36.2216 126.6889 183° South  Level Estimated
Tue 02:40:32 AM 36.1454 126.6832 183° South  Level Estimated
Tue 02:41:32 AM 36.0691 126.6776 183° South  Level Estimated
Tue 02:42:32 AM 35.9929 126.6719 183° South  Level Estimated
Tue 02:43:32 AM 35.9166 126.6662 183° South  Level Estimated
Tue 02:44:32 AM 35.8404 126.6606 183° South  Level Estimated
Tue 02:45:32 AM 35.7641 126.6549 183° South  Level Estimated
Tue 02:46:32 AM 35.6879 126.6493 183° South  Level Estimated
Tue 02:47:32 AM 35.6117 126.6437 183° South  Level Estimated
Tue 02:48:32 AM 35.5354 126.6381 183° South  Level Estimated
Tue 02:49:32 AM 35.4592 126.6325 183° South  Level Estimated
Tue 02:50:32 AM 35.3829 126.6269 183° South  Level Estimated
Tue 02:51:32 AM 35.3067 126.6213 183° South  Level Estimated
Tue 02:52:32 AM 35.2304 126.6158 183° South  Level Estimated
Tue 02:53:32 AM 35.1542 126.6102 183° South  Level Estimated
Tue 02:54:32 AM 35.0780 126.6047 183° South  Level Estimated
Tue 02:55:32 AM 35.0017 126.5991 183° South  Level Estimated
Tue 02:56:32 AM 34.9255 126.5936 183° South  Level Estimated
Tue 02:57:32 AM 34.8492 126.5881 183° South  Level Estimated
Tue 02:58:32 AM 34.7730 126.5826 183° South  Level Estimated
Tue 02:59:32 AM 34.6967 126.5771 183° South  Level Estimated
Tue 03:00:32 AM 34.6190 126.5715 183° South  Level Estimated
Tue 03:01:32 AM 34.5413 126.5660 183° South  Level Estimated
Tue 03:02:32 AM 34.4636 126.5604 183° South  Level Estimated
Tue 03:03:32 AM 34.3859 126.5548 183° South  Level Estimated
Tue 03:04:32 AM 34.3082 126.5493 183° South  Level Estimated
Tue 03:05:32 AM 34.2304 126.5438 183° South  Level Estimated
Tue 03:06:32 AM 34.1527 126.5382 183° South  Level Estimated
Tue 03:07:32 AM 34.0750 126.5327 183° South  Level Estimated
Tue 03:08:32 AM 33.9973 126.5272 183° South  Level Estimated
Tue 03:09:32 AM 33.9196 126.5217 183° South  Level Estimated
Tue 03:10:32 AM 33.8419 126.5162 183° South  Level Estimated
Tue 03:11:32 AM 33.7641 126.5108 183° South  Level Estimated
Tue 03:12:32 AM 33.6864 126.5053 183° South  Level Estimated
Tue 03:13:32 AM 33.6087 126.4998 183° South  Level Estimated
Tue 03:14:32 AM 33.5310 126.4944 183° South  Level Estimated
Tue 03:15:32 AM 33.4533 126.4890 North  Level Estimated
Tue 03:16:32 AM 33.5310 126.4944 183° South  Level Estimated
Tue 03:17:32 AM 33.4533 126.4890 North  Level Estimated
Tue 03:18:32 AM 33.5310 126.4944 183° South  Level Estimated
Tue 03:19:32 AM 33.4533 126.4890 North  Level Estimated
Tue 03:20:32 AM 33.5310 126.4944 183° South  Level Estimated
Tue 03:21:32 AM 33.4533 126.4890 North  Level Estimated
Tue 03:22:32 AM 33.5310 126.4944 183° South  Level Estimated
Tue 03:23:32 AM 33.4533 126.4890 North  Level Estimated
Tue 03:24:32 AM 33.5310 126.4944 183° South  Level Estimated
Tue 03:25:32 AM 33.4533 126.4890 North  Level Estimated
Tue 03:26:32 AM 33.5310 126.4944 183° South  Level Estimated
Tue 03:27:32 AM 33.4533 126.4890 North  Level Estimated
Tue 03:28:32 AM 33.5310 126.4944 183° South  Level Estimated
Tue 03:29:32 AM 33.4533 126.4890 183° South  Level Estimated

Login

Don't have an account? Register now (free) for customized features, flight alerts, and more!